createdAt,value
2019-05-19T00:00:32.896Z,7.67
2019-05-19T00:03:04.290Z,8.40
2019-05-19T00:05:35.852Z,8.00
2019-05-19T00:08:06.870Z,8.60
2019-05-19T00:10:38.042Z,8.23
2019-05-19T00:13:09.161Z,8.13
2019-05-19T00:15:40.182Z,9.43
2019-05-19T00:18:11.253Z,7.83
2019-05-19T00:20:42.337Z,9.20
2019-05-19T00:23:13.360Z,9.43
2019-05-19T00:25:44.466Z,9.20
2019-05-19T00:28:15.605Z,9.60
2019-05-19T00:30:46.712Z,8.83
2019-05-19T00:33:17.919Z,9.73
2019-05-19T00:35:48.973Z,10.10
2019-05-19T00:38:20.031Z,9.70
2019-05-19T00:40:51.131Z,10.30
2019-05-19T00:43:22.240Z,9.20
2019-05-19T00:45:53.418Z,9.27
2019-05-19T00:48:24.568Z,9.00
2019-05-19T00:50:56.898Z,8.30
2019-05-19T00:53:28.094Z,9.27
2019-05-19T00:56:00.693Z,8.60
2019-05-19T00:58:34.522Z,8.20
2019-05-19T01:01:05.700Z,7.40
2019-05-19T01:03:36.747Z,6.97
2019-05-19T01:06:08.995Z,7.20
2019-05-19T01:08:40.033Z,8.07
2019-05-19T01:11:11.113Z,8.50
2019-05-19T01:13:42.238Z,6.87
2019-05-19T01:16:13.386Z,8.07
2019-05-19T01:18:45.452Z,7.60
2019-05-19T01:21:17.292Z,7.77
2019-05-19T01:23:48.356Z,8.37
2019-05-19T01:26:19.428Z,7.70
2019-05-19T01:28:50.540Z,7.87
2019-05-19T01:31:21.693Z,7.93
2019-05-19T01:33:52.701Z,8.07
2019-05-19T01:36:23.724Z,7.07
2019-05-19T01:38:54.861Z,8.50
2019-05-19T01:41:26.055Z,8.27
2019-05-19T01:43:57.138Z,7.60
2019-05-19T01:46:28.226Z,7.50
2019-05-19T01:48:59.330Z,8.47
2019-05-19T01:51:30.399Z,8.27
2019-05-19T01:54:01.538Z,8.33
2019-05-19T01:56:32.597Z,7.77
2019-05-19T01:59:03.678Z,7.00
2019-05-19T02:01:35.948Z,8.00
2019-05-19T02:04:07.192Z,6.70
2019-05-19T02:06:38.417Z,7.47
2019-05-19T02:09:09.651Z,7.30
2019-05-19T02:11:40.879Z,7.23
2019-05-19T02:14:11.975Z,6.80
2019-05-19T02:16:43.081Z,7.30
2019-05-19T02:19:14.259Z,8.07
2019-05-19T02:21:45.354Z,8.10
2019-05-19T02:24:16.463Z,8.20
2019-05-19T02:26:47.564Z,7.80
2019-05-19T02:29:18.737Z,8.50
2019-05-19T02:31:50.926Z,9.33
2019-05-19T02:34:21.975Z,8.67
2019-05-19T02:36:53.061Z,7.40
2019-05-19T02:39:24.310Z,7.67
2019-05-19T02:41:55.463Z,7.33
2019-05-19T02:44:28.127Z,6.90
2019-05-19T02:47:01.076Z,7.57
2019-05-19T02:49:34.032Z,7.13
2019-05-19T02:52:05.646Z,7.40
2019-05-19T02:54:37.539Z,8.10
2019-05-19T02:57:09.079Z,6.50
2019-05-19T02:59:41.455Z,7.33
2019-05-19T03:02:13.931Z,7.10
2019-05-19T03:04:45.100Z,7.57
2019-05-19T03:07:16.150Z,8.00
2019-05-19T03:09:47.269Z,7.10
2019-05-19T03:12:18.383Z,7.67
2019-05-19T03:14:49.550Z,7.80
2019-05-19T03:17:20.590Z,9.00
2019-05-19T03:19:52.105Z,8.23
2019-05-19T03:22:24.019Z,8.87
2019-05-19T03:24:55.101Z,7.93
2019-05-19T03:27:26.094Z,9.00
2019-05-19T03:29:58.872Z,9.53
2019-05-19T03:32:45.935Z,9.20
2019-05-19T03:35:17.078Z,9.70
2019-05-19T03:37:48.178Z,9.50
2019-05-19T03:40:22.245Z,9.97
2019-05-19T03:42:53.608Z,10.50
2019-05-19T03:45:24.702Z,10.00
2019-05-19T03:47:55.991Z,9.60
2019-05-19T03:50:27.070Z,10.37
2019-05-19T03:52:58.110Z,10.90
2019-05-19T03:55:29.158Z,10.83
2019-05-19T03:58:00.254Z,10.87
2019-05-19T04:00:31.533Z,10.30
2019-05-19T04:03:02.674Z,9.93
2019-05-19T04:05:33.841Z,10.20
2019-05-19T04:08:04.965Z,10.40
2019-05-19T04:10:36.409Z,10.77
2019-05-19T04:13:07.442Z,11.80
2019-05-19T04:15:38.643Z,10.97
2019-05-19T04:18:09.659Z,10.70
2019-05-19T04:20:40.847Z,10.60
2019-05-19T04:23:11.895Z,11.13
2019-05-19T04:25:43.074Z,12.10
2019-05-19T04:28:14.191Z,11.53
2019-05-19T04:30:45.360Z,12.37
2019-05-19T04:33:16.630Z,12.17
2019-05-19T04:35:47.669Z,11.13
2019-05-19T04:38:18.690Z,12.60
2019-05-19T04:40:49.775Z,11.00
2019-05-19T04:43:20.799Z,10.90
2019-05-19T04:45:51.829Z,10.33
2019-05-19T04:48:23.009Z,12.00
2019-05-19T04:50:54.071Z,10.10
2019-05-19T04:53:26.306Z,9.40
2019-05-19T04:55:57.457Z,8.20
2019-05-19T04:58:28.455Z,8.40
2019-05-19T05:00:59.496Z,8.27
2019-05-19T05:03:31.575Z,6.97
2019-05-19T05:06:02.666Z,8.80
2019-05-19T05:08:33.758Z,8.20
2019-05-19T05:11:04.846Z,9.10
2019-05-19T05:13:35.843Z,8.13
2019-05-19T05:16:06.874Z,9.53
2019-05-19T05:18:37.932Z,9.30
2019-05-19T05:21:08.980Z,8.73
2019-05-19T05:23:40.007Z,11.00
2019-05-19T05:26:11.137Z,8.97
2019-05-19T05:28:42.138Z,10.43
2019-05-19T05:31:15.518Z,10.77
2019-05-19T05:33:47.611Z,9.90
2019-05-19T05:36:18.714Z,9.57
2019-05-19T05:38:49.837Z,10.37
2019-05-19T05:41:21.107Z,11.00
2019-05-19T05:43:52.198Z,9.70
2019-05-19T05:46:23.437Z,9.43
2019-05-19T05:48:54.420Z,9.70
2019-05-19T05:51:25.838Z,10.80
2019-05-19T05:53:56.891Z,10.43
2019-05-19T05:56:27.930Z,10.67
2019-05-19T05:58:58.934Z,9.97
2019-05-19T06:01:30.055Z,11.00
2019-05-19T06:04:01.050Z,11.87
2019-05-19T06:06:32.300Z,10.70
2019-05-19T06:09:05.796Z,12.37
2019-05-19T06:11:37.187Z,10.77
2019-05-19T06:14:08.353Z,11.47
2019-05-19T06:16:39.410Z,12.67
2019-05-19T06:19:10.491Z,11.43
2019-05-19T06:21:41.625Z,12.03
2019-05-19T06:24:12.801Z,10.80
2019-05-19T06:26:43.862Z,11.00
2019-05-19T06:29:14.891Z,12.10
2019-05-19T06:31:46.077Z,12.90
2019-05-19T06:34:17.225Z,11.27
2019-05-19T06:36:48.396Z,12.30
2019-05-19T06:39:19.438Z,10.63
2019-05-19T06:41:50.476Z,12.13
2019-05-19T06:44:21.523Z,9.40
2019-05-19T06:46:52.551Z,9.10
2019-05-19T06:49:23.670Z,9.30
2019-05-19T06:51:54.675Z,9.63
2019-05-19T06:54:25.673Z,7.93
2019-05-19T06:56:56.764Z,8.93
2019-05-19T06:59:27.805Z,8.17
2019-05-19T07:01:58.888Z,8.80
2019-05-19T07:04:29.966Z,8.30
2019-05-19T07:07:01.101Z,8.03
2019-05-19T07:09:32.101Z,7.10
2019-05-19T07:12:03.114Z,8.60
2019-05-19T07:14:34.207Z,8.40
2019-05-19T07:17:05.441Z,7.30
2019-05-19T07:19:36.641Z,7.80
2019-05-19T07:22:07.913Z,7.50
2019-05-19T07:24:38.951Z,6.97
2019-05-19T07:27:09.993Z,6.43
2019-05-19T07:29:41.041Z,7.60
2019-05-19T07:32:12.140Z,6.37
2019-05-19T07:34:43.338Z,7.77
2019-05-19T07:37:14.467Z,6.27
2019-05-19T07:39:45.483Z,7.07
2019-05-19T07:42:16.604Z,6.50
2019-05-19T07:44:47.630Z,6.80
2019-05-19T07:47:18.735Z,6.63
2019-05-19T07:49:49.753Z,7.70
2019-05-19T07:52:20.881Z,7.63
2019-05-19T07:54:51.948Z,7.87
2019-05-19T07:57:23.010Z,7.50
2019-05-19T07:59:54.215Z,8.20
2019-05-19T08:02:25.237Z,7.80
2019-05-19T08:04:56.248Z,7.40
2019-05-19T08:07:27.372Z,8.27
2019-05-19T08:09:58.493Z,6.60
2019-05-19T08:12:29.552Z,7.63
2019-05-19T08:15:00.590Z,6.97
2019-05-19T08:17:31.716Z,6.67
2019-05-19T08:20:02.712Z,8.67
2019-05-19T08:22:33.741Z,7.93
2019-05-19T08:25:05.294Z,7.50
2019-05-19T08:27:36.314Z,8.10
2019-05-19T08:30:08.793Z,8.20
2019-05-19T08:32:39.988Z,8.40
2019-05-19T08:35:11.122Z,8.47
2019-05-19T08:37:43.338Z,9.90
2019-05-19T08:40:14.618Z,10.90
2019-05-19T08:42:45.673Z,10.20
2019-05-19T08:45:17.286Z,11.20
2019-05-19T08:47:48.356Z,11.00
2019-05-19T08:50:19.505Z,11.27
2019-05-19T08:52:50.547Z,8.70
2019-05-19T08:55:21.691Z,9.77
2019-05-19T08:57:52.750Z,10.03
2019-05-19T09:00:24.038Z,8.80
2019-05-19T09:02:55.094Z,10.10
2019-05-19T09:05:26.251Z,10.00
2019-05-19T09:07:58.335Z,10.13
2019-05-19T09:10:29.403Z,9.47
2019-05-19T09:13:00.515Z,10.77
2019-05-19T09:15:31.758Z,8.80
2019-05-19T09:18:02.850Z,8.90
2019-05-19T09:20:33.853Z,8.53
2019-05-19T09:23:05.041Z,8.47
2019-05-19T09:25:36.164Z,7.60
2019-05-19T09:28:07.186Z,8.13
2019-05-19T09:30:38.291Z,7.87
2019-05-19T09:33:09.413Z,7.57
2019-05-19T09:35:40.397Z,7.70
2019-05-19T09:38:11.432Z,6.50
2019-05-19T09:40:42.492Z,8.43
2019-05-19T09:43:14.166Z,8.40
2019-05-19T09:45:45.445Z,8.20
2019-05-19T09:48:16.540Z,8.60
2019-05-19T09:50:47.745Z,8.50
2019-05-19T09:53:20.049Z,8.40
2019-05-19T09:55:51.102Z,7.63
2019-05-19T09:58:22.209Z,7.00
2019-05-19T10:00:53.433Z,6.67
2019-05-19T10:03:24.727Z,6.87
2019-05-19T10:05:56.786Z,6.20
2019-05-19T10:08:32.875Z,7.03
2019-05-19T10:11:59.526Z,7.17
2019-05-19T10:14:30.605Z,5.90
2019-05-19T10:17:48.682Z,4.80
2019-05-19T10:19:40.085Z,6.30
2019-05-19T10:22:11.364Z,5.50
2019-05-19T10:24:59.186Z,6.30
2019-05-19T10:27:15.486Z,6.30
2019-05-19T10:29:46.648Z,6.20
2019-05-19T10:32:17.738Z,7.07
2019-05-19T10:34:48.943Z,5.43
2019-05-19T10:37:20.070Z,5.17
2019-05-19T10:39:51.131Z,4.90
2019-05-19T10:42:22.272Z,4.70
2019-05-19T10:44:53.377Z,5.30
2019-05-19T10:47:24.457Z,5.30
2019-05-19T10:49:55.485Z,5.93
2019-05-19T10:52:26.497Z,5.93
2019-05-19T10:54:57.592Z,6.10
2019-05-19T10:57:28.623Z,4.43
2019-05-19T10:59:59.719Z,6.20
2019-05-19T11:02:30.779Z,5.03
2019-05-19T11:05:01.884Z,4.73
2019-05-19T11:07:34.022Z,5.70
2019-05-19T11:10:05.674Z,5.03
2019-05-19T11:12:36.796Z,5.27
2019-05-19T11:15:08.648Z,5.70
2019-05-19T11:18:32.616Z,5.27
2019-05-19T11:21:03.718Z,5.60
2019-05-19T11:23:34.762Z,5.57
2019-05-19T11:26:06.179Z,6.63
2019-05-19T11:28:37.287Z,6.10
2019-05-19T11:31:08.427Z,6.30
2019-05-19T11:33:39.588Z,5.70
2019-05-19T11:36:10.879Z,5.50
2019-05-19T11:38:43.008Z,5.23
2019-05-19T11:41:14.088Z,5.50
2019-05-19T11:43:45.164Z,6.13
2019-05-19T11:46:16.171Z,4.63
2019-05-19T11:48:47.331Z,6.37
2019-05-19T11:51:18.490Z,6.30
2019-05-19T11:53:49.511Z,5.47
2019-05-19T11:56:20.507Z,5.30
2019-05-19T11:58:51.505Z,5.63
2019-05-19T12:01:22.553Z,5.53
2019-05-19T12:03:55.501Z,6.00
2019-05-19T12:06:38.805Z,6.70
2019-05-19T12:08:59.498Z,5.63
2019-05-19T12:11:30.588Z,5.93
2019-05-19T12:14:01.637Z,5.70
2019-05-19T12:16:32.911Z,6.30
2019-05-19T12:19:04.156Z,6.70
2019-05-19T12:21:35.162Z,5.17
2019-05-19T12:24:06.530Z,6.50
2019-05-19T12:26:37.720Z,6.03
2019-05-19T12:29:08.933Z,4.80
2019-05-19T12:31:40.100Z,5.10
2019-05-19T12:34:11.169Z,5.43
2019-05-19T12:36:42.262Z,5.50
2019-05-19T12:39:13.308Z,5.00
2019-05-19T12:41:44.442Z,5.80
2019-05-19T12:44:16.519Z,5.60
2019-05-19T12:46:47.554Z,5.13
2019-05-19T12:49:18.798Z,4.23
2019-05-19T12:51:50.050Z,4.60
2019-05-19T12:54:21.054Z,7.40
2019-05-19T12:56:52.159Z,5.20
2019-05-19T12:59:23.275Z,5.07
2019-05-19T13:01:54.609Z,5.20
2019-05-19T13:04:25.666Z,5.03
2019-05-19T13:06:56.856Z,5.77
2019-05-19T13:09:27.960Z,4.93
2019-05-19T13:11:58.991Z,7.10
2019-05-19T13:14:30.011Z,6.93
2019-05-19T13:17:01.061Z,6.27
2019-05-19T13:19:32.150Z,6.63
2019-05-19T13:22:03.172Z,7.30
2019-05-19T13:24:34.245Z,5.77
2019-05-19T13:27:05.508Z,4.97
2019-05-19T13:29:36.653Z,4.63
2019-05-19T13:32:42.968Z,4.70
2019-05-19T13:35:14.575Z,4.00
2019-05-19T13:37:45.676Z,5.67
2019-05-19T13:40:16.969Z,4.40
2019-05-19T13:42:48.087Z,3.50
2019-05-19T13:45:19.336Z,3.80
2019-05-19T13:47:50.681Z,3.70
2019-05-19T13:50:21.781Z,5.00
2019-05-19T13:52:52.911Z,4.20
2019-05-19T13:55:23.889Z,8.17
2019-05-19T13:57:54.920Z,6.47
2019-05-19T14:00:25.950Z,6.67
2019-05-19T14:02:57.047Z,7.10
2019-05-19T14:05:28.130Z,7.47
2019-05-19T14:07:59.151Z,7.00
2019-05-19T14:10:30.177Z,7.67
2019-05-19T14:13:01.270Z,7.77
2019-05-19T14:15:32.334Z,7.20
2019-05-19T14:18:03.531Z,7.60
2019-05-19T14:20:34.637Z,7.90
2019-05-19T14:23:05.751Z,5.27
2019-05-19T14:25:36.886Z,6.20
2019-05-19T14:28:07.968Z,6.37
2019-05-19T14:30:38.976Z,7.00
2019-05-19T14:33:10.012Z,4.40
2019-05-19T14:35:41.029Z,5.70
2019-05-19T14:38:12.099Z,5.10
2019-05-19T14:40:43.856Z,4.20
2019-05-19T14:43:15.326Z,3.60
2019-05-19T14:45:46.344Z,3.10
2019-05-19T14:48:17.350Z,2.70
2019-05-19T14:50:48.426Z,3.07
2019-05-19T14:53:19.521Z,3.10
2019-05-19T14:55:50.665Z,3.00
2019-05-19T14:58:21.680Z,2.47
2019-05-19T15:00:52.758Z,2.60
2019-05-19T15:03:23.844Z,2.40
2019-05-19T15:05:54.921Z,2.10
2019-05-19T15:08:26.228Z,2.40
2019-05-19T15:10:57.238Z,1.83
2019-05-19T15:13:28.284Z,2.10
2019-05-19T15:16:00.658Z,2.43
2019-05-19T15:18:32.664Z,2.53
2019-05-19T15:21:03.737Z,2.70
2019-05-19T15:23:34.781Z,2.70
2019-05-19T15:26:05.962Z,2.80
2019-05-19T15:28:37.105Z,3.27
2019-05-19T15:31:09.182Z,3.10
2019-05-19T15:33:41.367Z,3.30
2019-05-19T15:36:12.460Z,3.33
2019-05-19T15:38:43.599Z,4.33
2019-05-19T15:41:14.671Z,4.97
2019-05-19T15:43:45.888Z,3.97
2019-05-19T15:46:18.209Z,3.60
2019-05-19T15:48:49.630Z,4.00
2019-05-19T15:51:28.662Z,4.10
2019-05-19T15:53:53.415Z,3.70
2019-05-19T15:56:24.511Z,3.80
2019-05-19T15:58:55.557Z,4.50
2019-05-19T16:01:26.653Z,3.40
2019-05-19T16:03:57.702Z,3.83
2019-05-19T16:06:28.760Z,4.60
2019-05-19T16:09:00.025Z,3.87
2019-05-19T16:11:31.162Z,3.90
2019-05-19T16:14:02.220Z,3.83
2019-05-19T16:16:33.327Z,4.80
2019-05-19T16:19:04.528Z,5.60
2019-05-19T16:21:35.645Z,4.40
2019-05-19T16:24:06.814Z,4.53
2019-05-19T16:26:37.831Z,4.10
2019-05-19T16:29:08.915Z,5.10
2019-05-19T16:31:39.927Z,4.40
2019-05-19T16:34:11.129Z,3.73
2019-05-19T16:36:42.147Z,4.70
2019-05-19T16:39:13.269Z,4.80
2019-05-19T16:41:44.304Z,4.93
2019-05-19T16:44:15.487Z,5.07
2019-05-19T16:46:47.558Z,5.10
2019-05-19T16:49:18.599Z,4.93
2019-05-19T16:51:49.884Z,4.40
2019-05-19T16:54:25.734Z,4.40
2019-05-19T16:56:56.836Z,4.40
2019-05-19T16:59:27.856Z,3.73
2019-05-19T17:01:58.856Z,4.40
2019-05-19T17:04:29.887Z,3.70
2019-05-19T17:07:03.065Z,4.07
2019-05-19T17:09:33.969Z,4.17
2019-05-19T17:12:06.938Z,4.70
2019-05-19T17:14:38.083Z,4.87
2019-05-19T17:17:09.084Z,4.00
2019-05-19T17:19:40.140Z,3.40
2019-05-19T17:22:11.172Z,3.97
2019-05-19T17:24:42.532Z,3.50
2019-05-19T17:27:13.687Z,3.30
2019-05-19T17:33:12.452Z,4.53
2019-05-19T17:39:14.279Z,6.30
2019-05-19T17:41:45.308Z,5.30
2019-05-19T17:44:16.363Z,3.40
2019-05-19T17:46:47.404Z,4.00
2019-05-19T17:49:18.478Z,3.40
2019-05-19T17:51:49.720Z,3.33
2019-05-19T17:54:20.857Z,3.73
2019-05-19T17:56:54.111Z,2.90
2019-05-19T17:59:25.961Z,2.30
2019-05-19T18:01:57.018Z,2.40
2019-05-19T18:04:28.048Z,2.50
2019-05-19T18:06:59.149Z,2.07
2019-05-19T18:09:31.335Z,2.20
2019-05-19T18:12:02.560Z,2.50
2019-05-19T18:14:33.743Z,2.30
2019-05-19T18:17:04.967Z,1.83
2019-05-19T18:19:36.341Z,1.70
2019-05-19T18:22:07.826Z,1.73
2019-05-19T18:24:54.851Z,1.60
2019-05-19T18:27:25.983Z,2.03
2019-05-19T18:29:57.103Z,1.93
2019-05-19T18:32:28.292Z,1.67
2019-05-19T18:34:59.324Z,2.00
2019-05-19T18:37:30.438Z,1.80
2019-05-19T18:40:01.466Z,2.07
2019-05-19T18:42:32.595Z,2.23
2019-05-19T18:45:03.805Z,2.83
2019-05-19T18:47:35.067Z,2.67
2019-05-19T18:50:06.796Z,3.23
2019-05-19T18:52:37.978Z,2.87
2019-05-19T18:55:09.445Z,2.77
2019-05-19T18:57:40.641Z,2.50
2019-05-19T19:00:16.512Z,2.43
2019-05-19T19:02:48.110Z,2.23
2019-05-19T19:05:19.369Z,2.40
2019-05-19T19:07:52.710Z,2.30
2019-05-19T19:10:23.914Z,2.40
2019-05-19T19:12:54.972Z,2.30
2019-05-19T19:15:26.061Z,1.97
2019-05-19T19:17:57.465Z,2.00
2019-05-19T19:20:28.610Z,2.40
2019-05-19T19:22:59.739Z,2.00
2019-05-19T19:25:30.810Z,2.33
2019-05-19T19:28:01.889Z,2.13
2019-05-19T19:30:33.193Z,2.70
2019-05-19T19:33:04.474Z,2.27
2019-05-19T19:35:39.080Z,2.50
2019-05-19T19:38:08.720Z,2.40
2019-05-19T19:40:39.910Z,2.53
2019-05-19T19:43:12.195Z,2.93
2019-05-19T19:45:43.356Z,2.90
2019-05-19T19:48:15.577Z,2.00
2019-05-19T19:50:46.751Z,2.10
2019-05-19T19:53:19.181Z,2.60
2019-05-19T19:55:50.395Z,3.10
2019-05-19T19:58:21.548Z,2.93
2019-05-19T20:00:52.635Z,3.40
2019-05-19T20:03:23.869Z,3.73
2019-05-19T20:05:55.186Z,3.73
2019-05-19T20:08:26.315Z,4.77
2019-05-19T20:10:57.474Z,5.60
2019-05-19T20:13:28.553Z,6.43
2019-05-19T20:15:59.584Z,6.07
2019-05-19T20:18:30.770Z,4.80
2019-05-19T20:21:01.874Z,6.37
2019-05-19T20:23:33.084Z,6.33
2019-05-19T20:26:04.349Z,7.13
2019-05-19T20:28:35.426Z,4.03
2019-05-19T20:31:06.714Z,5.30
2019-05-19T20:33:37.880Z,5.73
2019-05-19T20:36:09.019Z,7.47
2019-05-19T20:38:40.312Z,5.30
2019-05-19T20:41:11.414Z,6.53
2019-05-19T20:43:42.688Z,5.73
2019-05-19T20:46:13.703Z,6.67
2019-05-19T20:48:45.012Z,6.43
2019-05-19T20:51:16.209Z,6.33
2019-05-19T20:53:47.375Z,6.77
2019-05-19T20:56:18.506Z,5.53
2019-05-19T20:58:49.791Z,7.33
2019-05-19T21:01:20.843Z,6.70
2019-05-19T21:03:52.073Z,5.90
2019-05-19T21:06:23.158Z,6.70
2019-05-19T21:08:54.424Z,7.03
2019-05-19T21:11:25.579Z,5.73
2019-05-19T21:13:56.682Z,6.40
2019-05-19T21:16:27.849Z,6.10
2019-05-19T21:19:12.579Z,6.90
2019-05-19T21:21:43.661Z,9.00
2019-05-19T21:24:14.840Z,8.20
2019-05-19T21:26:46.076Z,8.77
2019-05-19T21:29:17.250Z,7.17
2019-05-19T21:31:48.374Z,7.50
2019-05-19T21:34:19.573Z,6.87
2019-05-19T21:36:50.875Z,6.40
2019-05-19T21:39:21.918Z,7.50
2019-05-19T21:41:53.119Z,5.73
2019-05-19T21:44:24.340Z,6.13
2019-05-19T21:46:55.528Z,8.90
2019-05-19T21:49:26.887Z,11.07
2019-05-19T21:51:58.092Z,7.27
2019-05-19T21:54:29.440Z,8.13
2019-05-19T21:57:00.504Z,7.50
2019-05-19T21:59:32.647Z,7.57
2019-05-19T22:02:04.657Z,7.60
2019-05-19T22:04:36.068Z,8.00
2019-05-19T22:07:14.556Z,8.27
2019-05-19T22:09:45.803Z,7.50
2019-05-19T22:12:16.922Z,8.00
2019-05-19T22:14:48.075Z,10.13
2019-05-19T22:17:19.300Z,9.57
2019-05-19T22:19:50.436Z,8.10
2019-05-19T22:22:21.601Z,8.30
2019-05-19T22:24:52.731Z,7.20
2019-05-19T22:27:23.833Z,8.60
2019-05-19T22:29:55.017Z,8.63
2019-05-19T22:32:27.451Z,7.50
2019-05-19T22:34:58.572Z,8.20
2019-05-19T22:37:29.636Z,7.60
2019-05-19T22:40:00.745Z,8.27
2019-05-19T22:42:31.972Z,9.10
2019-05-19T22:45:03.080Z,8.87
2019-05-19T22:47:34.382Z,9.37
2019-05-19T22:50:06.679Z,9.10
2019-05-19T22:52:38.830Z,9.07
2019-05-19T22:55:10.577Z,9.33
2019-05-19T22:57:41.626Z,9.23
2019-05-19T23:00:16.049Z,9.87
2019-05-19T23:02:48.638Z,8.70
2019-05-19T23:05:19.985Z,9.03
2019-05-19T23:07:51.171Z,9.10
2019-05-19T23:10:22.654Z,9.97
2019-05-19T23:12:53.821Z,9.50
2019-05-19T23:15:25.259Z,9.30
2019-05-19T23:17:56.461Z,9.43
2019-05-19T23:20:27.622Z,10.30
2019-05-19T23:22:59.204Z,10.20
2019-05-19T23:25:30.387Z,11.27
2019-05-19T23:28:01.535Z,10.20
2019-05-19T23:30:32.720Z,9.30
2019-05-19T23:33:03.840Z,7.93
2019-05-19T23:35:34.951Z,9.10
2019-05-19T23:38:06.183Z,7.47
2019-05-19T23:40:37.412Z,7.00
2019-05-19T23:43:09.568Z,7.87
2019-05-19T23:45:40.696Z,10.60
2019-05-19T23:48:11.761Z,10.03
2019-05-19T23:50:42.972Z,10.17
2019-05-19T23:53:14.030Z,8.90
2019-05-19T23:55:45.308Z,8.20
2019-05-19T23:58:17.303Z,10.97
